createdAt,value
2019-04-05T00:01:33.591Z,18.13
2019-04-05T00:03:37.325Z,20.37
2019-04-05T00:05:41.194Z,21.93
2019-04-05T00:07:44.920Z,17.37
2019-04-05T00:09:48.635Z,19.83
2019-04-05T00:11:52.361Z,22.77
2019-04-05T00:13:56.155Z,23.33
2019-04-05T00:16:01.028Z,21.90
2019-04-05T00:18:04.828Z,21.93
2019-04-05T00:20:09.309Z,20.27
2019-04-05T00:22:13.119Z,20.43
2019-04-05T00:24:16.851Z,19.83
2019-04-05T00:26:20.572Z,20.77
2019-04-05T00:28:24.307Z,20.13
2019-04-05T00:30:31.075Z,18.27
2019-04-05T00:32:34.813Z,19.47
2019-04-05T00:34:38.546Z,18.60
2019-04-05T00:36:42.308Z,19.30
2019-04-05T00:38:46.041Z,21.67
2019-04-05T00:40:49.773Z,16.87
2019-04-05T00:42:53.504Z,19.77
2019-04-05T00:44:57.216Z,18.00
2019-04-05T00:47:00.961Z,18.80
2019-04-05T00:49:04.862Z,19.80
2019-04-05T00:51:08.673Z,22.57
2019-04-05T00:53:12.498Z,22.50
2019-04-05T00:55:16.375Z,18.10
2019-04-05T00:57:20.106Z,17.13
2019-04-05T00:59:23.914Z,18.57
2019-04-05T01:01:27.724Z,19.57
2019-04-05T01:03:31.447Z,20.27
2019-04-05T01:05:35.350Z,20.03
2019-04-05T01:07:39.270Z,19.60
2019-04-05T01:09:43.143Z,17.63
2019-04-05T01:11:47.013Z,18.30
2019-04-05T01:13:51.903Z,18.33
2019-04-05T01:15:55.637Z,19.73
2019-04-05T01:17:59.378Z,17.60
2019-04-05T01:20:04.460Z,20.30
2019-04-05T01:22:10.359Z,17.07
2019-04-05T01:24:15.242Z,18.87
2019-04-05T01:26:19.956Z,18.87
2019-04-05T01:28:24.366Z,17.50
2019-04-05T01:30:31.115Z,17.47
2019-04-05T01:32:35.038Z,17.77
2019-04-05T01:34:38.827Z,17.37
2019-04-05T01:36:43.689Z,17.03
2019-04-05T01:38:47.435Z,18.93
2019-04-05T01:40:51.501Z,19.03
2019-04-05T01:42:55.497Z,21.23
2019-04-05T01:45:00.057Z,18.80
2019-04-05T01:47:03.845Z,18.90
2019-04-05T01:49:07.602Z,18.03
2019-04-05T01:51:11.475Z,23.47
2019-04-05T01:53:15.286Z,19.07
2019-04-05T01:55:19.073Z,17.50
2019-04-05T01:57:22.805Z,17.10
2019-04-05T01:59:26.619Z,17.43
2019-04-05T02:01:30.485Z,17.50
2019-04-05T02:03:34.359Z,18.80
2019-04-05T02:05:38.226Z,20.53
2019-04-05T02:07:42.587Z,21.33
2019-04-05T02:09:46.475Z,18.13
2019-04-05T02:11:50.358Z,17.97
2019-04-05T02:13:54.171Z,19.17
2019-04-05T02:16:06.046Z,19.70
2019-04-05T02:18:04.651Z,17.57
2019-04-05T02:20:08.965Z,17.57
2019-04-05T02:22:12.809Z,17.57
2019-04-05T02:24:16.609Z,16.10
2019-04-05T02:26:20.420Z,21.47
2019-04-05T02:28:25.459Z,18.53
2019-04-05T02:30:29.477Z,20.23
2019-04-05T02:32:33.281Z,19.23
2019-04-05T02:34:37.131Z,20.53
2019-04-05T02:36:40.995Z,19.43
2019-04-05T02:38:44.807Z,19.70
2019-04-05T02:40:50.382Z,19.43
2019-04-05T02:42:56.997Z,21.37
2019-04-05T02:45:00.875Z,21.77
2019-04-05T02:47:05.955Z,19.20
2019-04-05T02:49:10.133Z,20.33
2019-04-05T02:51:17.339Z,21.20
2019-04-05T02:53:22.757Z,19.93
2019-04-05T02:55:27.453Z,19.03
2019-04-05T02:57:32.827Z,21.60
2019-04-05T02:59:37.225Z,22.43
2019-04-05T03:01:42.513Z,17.67
2019-04-05T03:03:46.433Z,18.77
2019-04-05T03:05:50.328Z,19.07
2019-04-05T03:07:54.319Z,21.17
2019-04-05T03:09:59.134Z,22.97
2019-04-05T03:12:03.489Z,21.57
2019-04-05T03:14:10.126Z,22.47
2019-04-05T03:16:18.814Z,21.50
2019-04-05T03:18:25.274Z,23.17
2019-04-05T03:20:29.263Z,24.00
2019-04-05T03:22:36.058Z,21.87
2019-04-05T03:24:42.759Z,21.70
2019-04-05T03:26:53.414Z,20.93
2019-04-05T03:29:00.201Z,23.53
2019-04-05T03:31:04.409Z,28.33
2019-04-05T03:33:09.098Z,23.07
2019-04-05T03:35:12.998Z,21.13
2019-04-05T03:37:18.006Z,22.03
2019-04-05T03:39:22.883Z,23.37
2019-04-05T03:41:26.878Z,22.17
2019-04-05T03:43:30.687Z,24.57
2019-04-05T03:45:35.574Z,24.50
2019-04-05T03:47:39.645Z,21.90
2019-04-05T03:49:43.631Z,24.63
2019-04-05T03:51:47.449Z,23.97
2019-04-05T03:53:51.588Z,24.63
2019-04-05T03:55:56.240Z,25.27
2019-04-05T03:58:00.047Z,25.50
2019-04-05T04:00:04.317Z,28.23
2019-04-05T04:02:08.119Z,23.43
2019-04-05T04:04:12.007Z,24.03
2019-04-05T04:06:15.857Z,25.13
2019-04-05T04:08:23.243Z,23.93
2019-04-05T04:10:27.858Z,23.00
2019-04-05T04:12:33.738Z,27.37
2019-04-05T04:14:37.700Z,24.90
2019-04-05T04:16:41.696Z,25.20
2019-04-05T04:18:45.866Z,23.23
2019-04-05T04:20:52.753Z,27.00
2019-04-05T04:22:56.615Z,25.47
2019-04-05T04:25:00.897Z,24.27
2019-04-05T04:27:04.770Z,26.20
2019-04-05T04:29:08.644Z,29.77
2019-04-05T04:31:12.451Z,26.03
2019-04-05T04:33:17.973Z,22.47
2019-04-05T04:35:21.824Z,24.73
2019-04-05T04:37:25.820Z,25.07
2019-04-05T04:39:31.647Z,25.93
2019-04-05T04:41:35.995Z,26.50
2019-04-05T04:43:40.190Z,27.47
2019-04-05T04:45:44.278Z,23.20
2019-04-05T04:47:48.320Z,26.83
2019-04-05T04:49:53.747Z,24.47
2019-04-05T04:51:57.809Z,27.57
2019-04-05T04:54:01.885Z,29.93
2019-04-05T04:56:05.774Z,32.67
2019-04-05T04:58:09.766Z,28.37
2019-04-05T05:00:13.750Z,25.17
2019-04-05T05:02:17.640Z,26.43
2019-04-05T05:04:21.623Z,27.93
2019-04-05T05:06:25.500Z,28.97
2019-04-05T05:08:29.493Z,27.40
2019-04-05T05:10:33.415Z,25.00
2019-04-05T05:12:37.713Z,26.90
2019-04-05T05:14:41.582Z,29.80
2019-04-05T05:16:45.501Z,28.60
2019-04-05T05:18:49.684Z,27.93
2019-04-05T05:20:53.568Z,29.40
2019-04-05T05:22:57.466Z,29.93
2019-04-05T05:25:01.657Z,31.37
2019-04-05T05:27:05.789Z,28.63
2019-04-05T05:29:09.685Z,30.40
2019-04-05T05:31:13.505Z,33.80
2019-04-05T05:33:23.663Z,31.23
2019-04-05T05:35:27.779Z,31.37
2019-04-05T05:37:32.962Z,31.87
2019-04-05T05:39:36.783Z,26.33
2019-04-05T05:41:40.527Z,31.70
2019-04-05T05:43:44.411Z,34.00
2019-04-05T05:45:48.290Z,28.93
2019-04-05T05:47:52.642Z,33.53
2019-04-05T05:49:56.391Z,30.17
2019-04-05T05:52:00.573Z,34.23
2019-04-05T05:54:04.394Z,30.53
2019-04-05T05:56:08.123Z,27.37
2019-04-05T05:58:12.891Z,29.03
2019-04-05T06:00:18.942Z,31.73
2019-04-05T06:02:22.821Z,32.30
2019-04-05T06:04:26.558Z,31.27
2019-04-05T06:06:31.282Z,28.50
2019-04-05T06:08:35.048Z,30.13
2019-04-05T06:10:38.781Z,34.17
2019-04-05T06:12:42.530Z,28.97
2019-04-05T06:14:46.291Z,30.33
2019-04-05T06:16:51.183Z,28.23
2019-04-05T06:18:54.925Z,29.83
2019-04-05T06:21:03.416Z,27.63
2019-04-05T06:23:08.351Z,32.73
2019-04-05T06:25:12.162Z,29.40
2019-04-05T06:27:15.914Z,27.93
2019-04-05T06:29:21.713Z,32.27
2019-04-05T06:31:25.474Z,26.03
2019-04-05T06:33:31.908Z,30.67
2019-04-05T06:35:34.881Z,31.73
2019-04-05T06:37:38.595Z,32.07
2019-04-05T06:39:43.455Z,27.23
2019-04-05T06:41:47.183Z,27.87
2019-04-05T06:43:50.929Z,24.13
2019-04-05T06:45:54.712Z,28.73
2019-04-05T06:47:58.505Z,29.17
2019-04-05T06:50:02.338Z,27.60
2019-04-05T06:52:06.227Z,27.30
2019-04-05T06:54:09.983Z,26.17
2019-04-05T06:56:13.740Z,35.67
2019-04-05T06:58:20.592Z,28.60
2019-04-05T07:00:29.981Z,29.10
2019-04-05T07:02:33.821Z,28.67
2019-04-05T07:04:37.553Z,22.67
2019-04-05T07:06:42.351Z,24.70
2019-04-05T07:08:53.918Z,24.27
2019-04-05T07:10:55.626Z,26.03
2019-04-05T07:13:00.649Z,26.00
2019-04-05T07:15:04.850Z,27.63
2019-04-05T07:17:08.605Z,23.97
2019-04-05T07:19:12.500Z,22.53
2019-04-05T07:21:17.416Z,23.20
2019-04-05T07:23:21.282Z,23.50
2019-04-05T07:25:25.050Z,27.67
2019-04-05T07:27:35.616Z,24.07
2019-04-05T07:29:42.393Z,24.80
2019-04-05T07:31:46.131Z,25.17
2019-04-05T07:33:50.881Z,22.37
2019-04-05T07:35:54.610Z,28.30
2019-04-05T07:37:58.426Z,24.03
2019-04-05T07:40:06.156Z,22.53
2019-04-05T07:42:09.916Z,25.70
2019-04-05T07:44:14.674Z,21.67
2019-04-05T07:46:18.411Z,25.97
2019-04-05T07:48:22.150Z,25.07
2019-04-05T07:50:25.877Z,22.33
2019-04-05T07:52:29.622Z,25.10
2019-04-05T07:54:34.406Z,22.10
2019-04-05T07:56:39.136Z,25.10
2019-04-05T07:58:42.973Z,27.20
2019-04-05T08:00:53.796Z,24.07
2019-04-05T08:02:57.604Z,24.50
2019-04-05T08:05:02.309Z,23.93
2019-04-05T08:07:06.707Z,25.33
2019-04-05T08:09:13.202Z,22.27
2019-04-05T08:11:17.724Z,23.43
2019-04-05T08:13:24.009Z,21.17
2019-04-05T08:15:28.309Z,25.40
2019-04-05T08:17:32.043Z,22.40
2019-04-05T08:19:42.847Z,20.60
2019-04-05T08:21:46.574Z,20.30
2019-04-05T08:23:51.317Z,22.80
2019-04-05T08:25:55.118Z,22.23
2019-04-05T08:27:58.948Z,22.43
2019-04-05T08:30:02.772Z,24.60
2019-04-05T08:32:14.447Z,23.27
2019-04-05T08:34:12.057Z,22.53
2019-04-05T08:36:15.783Z,24.00
2019-04-05T08:38:19.563Z,21.67
2019-04-05T08:40:23.383Z,28.03
2019-04-05T08:42:27.132Z,26.20
2019-04-05T08:44:30.868Z,23.07
2019-04-05T08:46:35.899Z,20.30
2019-04-05T08:48:39.618Z,22.30
2019-04-05T08:50:43.459Z,23.23
2019-04-05T08:52:47.188Z,22.00
2019-04-05T08:54:50.911Z,17.97
2019-04-05T08:56:54.647Z,26.20
2019-04-05T08:58:58.420Z,24.27
2019-04-05T09:01:05.355Z,23.40
2019-04-05T09:03:12.031Z,23.63
2019-04-05T09:05:16.068Z,23.13
2019-04-05T09:07:19.805Z,20.97
2019-04-05T09:09:23.542Z,20.93
2019-04-05T09:11:27.270Z,21.90
2019-04-05T09:13:31.018Z,27.03
2019-04-05T09:15:35.770Z,21.37
2019-04-05T09:17:39.528Z,19.90
2019-04-05T09:19:43.352Z,18.53
2019-04-05T09:21:47.101Z,21.47
2019-04-05T09:23:50.802Z,26.87
2019-04-05T09:25:54.531Z,22.87
2019-04-05T09:27:58.253Z,22.07
2019-04-05T09:30:01.985Z,20.73
2019-04-05T09:32:05.813Z,21.70
2019-04-05T09:34:11.553Z,20.17
2019-04-05T09:36:15.365Z,28.23
2019-04-05T09:38:19.123Z,18.40
2019-04-05T09:40:23.016Z,19.57
2019-04-05T09:42:26.761Z,21.73
2019-04-05T09:44:31.554Z,20.53
2019-04-05T09:46:46.095Z,20.17
2019-04-05T09:48:40.747Z,22.50
2019-04-05T09:50:47.556Z,20.17
2019-04-05T09:52:51.278Z,22.00
2019-04-05T09:54:55.009Z,20.83
2019-04-05T09:56:58.766Z,22.33
2019-04-05T09:59:02.578Z,18.63
2019-04-05T10:01:06.383Z,18.30
2019-04-05T10:03:10.108Z,23.00
2019-04-05T10:05:14.005Z,19.03
2019-04-05T10:07:17.806Z,21.87
2019-04-05T10:09:21.618Z,23.70
2019-04-05T10:11:25.343Z,21.47
2019-04-05T10:13:29.133Z,23.07
2019-04-05T10:15:33.035Z,20.87
2019-04-05T10:17:36.831Z,23.07
2019-04-05T10:19:49.760Z,22.53
2019-04-05T10:21:46.001Z,19.93
2019-04-05T10:23:49.719Z,20.53
2019-04-05T10:25:53.448Z,24.53
2019-04-05T10:27:57.254Z,21.70
2019-04-05T10:30:01.012Z,20.80
2019-04-05T10:32:06.822Z,17.53
2019-04-05T10:34:10.621Z,21.07
2019-04-05T10:36:20.314Z,22.57
2019-04-05T10:38:23.988Z,18.80
2019-04-05T10:40:27.783Z,19.90
2019-04-05T10:42:33.549Z,20.43
2019-04-05T10:44:37.346Z,19.40
2019-04-05T10:46:41.097Z,19.97
2019-04-05T10:48:50.604Z,23.47
2019-04-05T10:50:54.398Z,24.00
2019-04-05T10:52:58.135Z,21.97
2019-04-05T10:55:02.860Z,22.70
2019-04-05T10:57:06.639Z,23.33
2019-04-05T10:59:10.425Z,19.03
2019-04-05T11:01:14.236Z,17.80
2019-04-05T11:03:17.969Z,20.03
2019-04-05T11:05:24.833Z,21.17
2019-04-05T11:07:28.578Z,21.67
2019-04-05T11:09:32.380Z,16.60
2019-04-05T11:11:36.151Z,18.17
2019-04-05T11:13:42.196Z,16.57
2019-04-05T11:15:46.084Z,16.60
2019-04-05T11:17:53.123Z,19.50
2019-04-05T11:19:57.853Z,14.73
2019-04-05T11:22:02.574Z,18.33
2019-04-05T11:24:06.349Z,18.37
2019-04-05T11:26:12.072Z,18.70
2019-04-05T11:28:15.823Z,18.03
2019-04-05T11:30:49.478Z,16.43
2019-04-05T11:32:53.310Z,16.03
2019-04-05T11:34:57.191Z,17.47
2019-04-05T11:37:02.781Z,16.97
2019-04-05T11:39:08.101Z,16.13
2019-04-05T11:41:13.274Z,14.93
2019-04-05T11:43:18.617Z,14.97
2019-04-05T11:45:22.435Z,14.57
2019-04-05T11:47:27.221Z,15.83
2019-04-05T11:49:32.672Z,14.10
2019-04-05T11:51:37.478Z,15.30
2019-04-05T11:53:50.435Z,14.97
2019-04-05T11:56:13.454Z,16.67
2019-04-05T11:58:06.750Z,15.87
2019-04-05T12:00:19.626Z,18.23
2019-04-05T12:02:33.070Z,15.57
2019-04-05T12:04:42.955Z,13.83
2019-04-05T12:06:46.728Z,15.40
2019-04-05T12:08:53.768Z,14.47
2019-04-05T12:10:59.543Z,17.53
2019-04-05T12:13:13.330Z,13.97
2019-04-05T12:15:17.145Z,13.43
2019-04-05T12:17:21.167Z,14.67
2019-04-05T12:19:34.073Z,13.83
2019-04-05T12:21:47.179Z,18.57
2019-04-05T12:23:50.918Z,16.97
2019-04-05T12:25:57.678Z,14.40
2019-04-05T12:28:10.618Z,16.87
2019-04-05T12:30:17.511Z,16.27
2019-04-05T12:32:41.045Z,16.07
2019-04-05T12:34:46.698Z,15.70
2019-04-05T12:36:59.588Z,17.40
2019-04-05T12:39:08.195Z,13.73
2019-04-05T12:41:14.199Z,13.77
2019-04-05T12:43:25.049Z,15.03
2019-04-05T12:45:29.885Z,16.30
2019-04-05T12:47:34.070Z,15.90
2019-04-05T12:49:45.508Z,18.33
2019-04-05T12:51:52.515Z,17.90
2019-04-05T12:54:05.745Z,14.90
2019-04-05T12:56:15.514Z,16.73
2019-04-05T12:58:27.454Z,15.77
2019-04-05T13:00:50.036Z,19.03
2019-04-05T13:02:57.142Z,16.80
2019-04-05T13:05:36.123Z,18.17
2019-04-05T13:07:46.152Z,18.70
2019-04-05T13:09:57.054Z,17.07
2019-04-05T13:12:13.052Z,14.60
2019-04-05T13:14:18.940Z,13.97
2019-04-05T13:16:24.706Z,15.97
2019-04-05T13:18:41.396Z,14.83
2019-04-05T13:20:45.163Z,12.47
2019-04-05T13:22:49.954Z,18.00
2019-04-05T13:24:56.871Z,17.93
2019-04-05T13:27:11.850Z,17.87
2019-04-05T13:29:15.348Z,14.87
2019-04-05T13:31:26.201Z,17.53
2019-04-05T13:33:45.373Z,19.93
2019-04-05T13:35:55.894Z,15.70
2019-04-05T13:38:15.122Z,18.17
2019-04-05T13:40:25.065Z,18.43
2019-04-05T13:42:31.219Z,19.67
2019-04-05T13:44:36.296Z,21.13
2019-04-05T13:46:42.663Z,24.20
2019-04-05T13:48:46.598Z,17.53
2019-04-05T13:50:59.722Z,19.30
2019-04-05T13:53:11.127Z,18.87
2019-04-05T13:57:48.824Z,20.70
2019-04-05T14:00:18.190Z,16.33
2019-04-05T14:02:26.987Z,18.03
2019-04-05T14:04:32.708Z,19.57
2019-04-05T14:06:38.521Z,18.43
2019-04-05T14:08:42.252Z,19.33
2019-04-05T14:11:12.042Z,20.67
2019-04-05T14:13:23.867Z,17.63
2019-04-05T14:20:57.052Z,15.80
2019-04-05T14:23:09.865Z,18.77
2019-04-05T14:25:19.816Z,18.10
2019-04-05T14:27:51.757Z,17.43
2019-04-05T14:29:56.482Z,17.10
2019-04-05T14:32:19.818Z,15.60
2019-04-05T14:34:11.695Z,20.43
2019-04-05T14:36:18.708Z,19.03
2019-04-05T14:38:31.227Z,14.27
2019-04-05T14:40:38.450Z,16.93
2019-04-05T14:42:48.430Z,17.67
2019-04-05T14:44:54.482Z,21.23
2019-04-05T14:47:04.536Z,18.30
2019-04-05T14:49:11.378Z,16.63
2019-04-05T14:51:24.473Z,14.13
2019-04-05T14:53:32.012Z,18.27
2019-04-05T14:55:40.797Z,19.70
2019-04-05T14:57:48.798Z,17.73
2019-04-05T15:00:00.651Z,16.27
2019-04-05T15:02:06.555Z,19.20
2019-04-05T15:04:12.099Z,17.73
2019-04-05T15:06:26.641Z,19.77
2019-04-05T15:08:33.775Z,16.13
2019-04-05T15:10:38.515Z,20.37
2019-04-05T15:12:42.248Z,13.43
2019-04-05T15:14:46.984Z,21.00
2019-04-05T15:16:55.759Z,15.90
2019-04-05T15:18:59.497Z,21.57
2019-04-05T15:21:09.292Z,17.00
2019-04-05T15:23:14.055Z,18.47
2019-04-05T15:25:21.613Z,18.50
2019-04-05T15:27:28.352Z,16.50
2019-04-05T15:29:35.148Z,19.33
2019-04-05T15:31:38.901Z,15.90
2019-04-05T15:33:48.535Z,20.43
2019-04-05T15:35:52.297Z,16.57
2019-04-05T15:38:02.290Z,15.70
2019-04-05T15:40:18.656Z,22.03
2019-04-05T15:42:32.433Z,15.43
2019-04-05T15:44:36.170Z,16.40
2019-04-05T15:46:40.996Z,16.30
2019-04-05T15:48:44.794Z,20.40
2019-04-05T15:50:51.634Z,14.83
2019-04-05T15:52:56.079Z,17.93
2019-04-05T15:55:06.470Z,14.43
2019-04-05T15:57:10.224Z,13.77
2019-04-05T15:59:15.039Z,15.87
2019-04-05T16:01:18.952Z,16.77
2019-04-05T16:03:32.355Z,18.73
2019-04-05T16:05:38.973Z,13.93
2019-04-05T16:07:45.830Z,18.07
2019-04-05T16:09:54.639Z,18.07
2019-04-05T16:12:02.452Z,17.33
2019-04-05T16:14:06.350Z,17.53
2019-04-05T16:16:10.091Z,17.73
2019-04-05T16:18:14.919Z,18.23
2019-04-05T16:20:25.533Z,17.27
2019-04-05T16:22:35.680Z,17.77
2019-04-05T16:24:39.067Z,21.23
2019-04-05T16:26:43.825Z,17.47
2019-04-05T16:28:47.559Z,15.03
2019-04-05T16:30:54.476Z,21.80
2019-04-05T16:32:58.228Z,19.07
2019-04-05T16:35:01.983Z,22.47
2019-04-05T16:37:06.884Z,21.57
2019-04-05T16:39:18.590Z,18.43
2019-04-05T16:41:30.266Z,18.93
2019-04-05T16:43:35.000Z,17.10
2019-04-05T16:45:38.905Z,18.00
2019-04-05T16:47:44.686Z,16.70
2019-04-05T16:49:50.440Z,17.83
2019-04-05T16:51:56.220Z,16.47
2019-04-05T16:54:00.738Z,18.23
2019-04-05T16:56:05.476Z,20.83
2019-04-05T16:58:09.219Z,16.37
2019-04-05T17:00:14.543Z,18.23
2019-04-05T17:02:21.330Z,17.60
2019-04-05T17:04:31.305Z,15.10
2019-04-05T17:06:35.042Z,19.13
2019-04-05T17:08:38.818Z,19.57
2019-04-05T17:10:42.546Z,16.93
2019-04-05T17:12:46.293Z,17.97
2019-04-05T17:14:50.059Z,16.43
2019-04-05T17:17:00.060Z,18.33
2019-04-05T17:19:06.928Z,20.23
2019-04-05T17:21:10.675Z,16.57
2019-04-05T17:23:14.444Z,19.80
2019-04-05T17:25:19.278Z,19.23
2019-04-05T17:27:24.021Z,19.50
2019-04-05T17:29:27.764Z,20.87
2019-04-05T17:31:31.602Z,17.47
2019-04-05T17:33:35.468Z,21.17
2019-04-05T17:35:42.418Z,18.00
2019-04-05T17:37:50.400Z,18.10
2019-04-05T17:40:00.207Z,18.53
2019-04-05T17:42:10.081Z,18.50
2019-04-05T17:44:16.955Z,19.80
2019-04-05T17:46:21.800Z,20.93
2019-04-05T17:48:27.630Z,20.33
2019-04-05T17:50:33.614Z,23.90
2019-04-05T17:52:38.367Z,19.90
2019-04-05T17:54:43.148Z,21.93
2019-04-05T17:56:47.534Z,18.53
2019-04-05T17:58:51.552Z,20.00
2019-04-05T18:00:58.538Z,16.40
2019-04-05T18:03:02.362Z,21.70
2019-04-05T18:05:06.409Z,21.40
2019-04-05T18:07:16.167Z,22.07
2019-04-05T18:09:20.005Z,19.77
2019-04-05T18:11:27.787Z,20.67
2019-04-05T18:13:34.573Z,22.90
2019-04-05T18:15:52.410Z,21.77
2019-04-05T18:17:52.034Z,23.87
2019-04-05T18:19:55.783Z,21.93
2019-04-05T18:22:06.003Z,28.67
2019-04-05T18:24:09.755Z,23.60
2019-04-05T18:26:14.509Z,26.47
2019-04-05T18:28:18.283Z,29.73
2019-04-05T18:30:22.059Z,29.17
2019-04-05T18:32:25.818Z,29.50
2019-04-05T18:34:30.564Z,26.63
2019-04-05T18:36:37.314Z,27.23
2019-04-05T18:38:44.171Z,28.67
2019-04-05T18:40:51.258Z,28.37
2019-04-05T18:42:55.006Z,29.03
2019-04-05T18:44:59.741Z,23.67
2019-04-05T18:47:03.584Z,19.70
2019-04-05T18:49:08.414Z,23.90
2019-04-05T18:51:14.358Z,20.60
2019-04-05T18:53:20.113Z,23.83
2019-04-05T18:55:29.776Z,25.57
2019-04-05T18:57:33.520Z,25.17
2019-04-05T18:59:37.272Z,21.17
2019-04-05T19:01:41.101Z,20.97
2019-04-05T19:03:44.868Z,21.77
2019-04-05T19:05:48.605Z,21.13
2019-04-05T19:07:52.427Z,22.37
2019-04-05T19:09:56.194Z,20.27
2019-04-05T19:12:04.348Z,23.27
2019-04-05T19:14:08.097Z,21.77
2019-04-05T19:16:13.909Z,25.90
2019-04-05T19:18:17.674Z,19.20
2019-04-05T19:20:21.423Z,19.33
2019-04-05T19:22:31.272Z,20.40
2019-04-05T19:24:38.207Z,26.43
2019-04-05T19:26:44.040Z,22.33
2019-04-05T19:28:48.801Z,28.97
2019-04-05T19:48:38.822Z,20.37
2019-04-05T19:50:42.525Z,21.53
2019-04-05T19:52:46.238Z,23.93
2019-04-05T19:54:50.101Z,23.87
2019-04-05T19:56:53.845Z,25.23
2019-04-05T19:58:57.645Z,23.03
2019-04-05T20:01:01.363Z,23.37
2019-04-05T20:03:05.227Z,21.93
2019-04-05T20:05:09.605Z,22.13
2019-04-05T20:07:13.323Z,22.67
2019-04-05T20:09:17.636Z,22.33
2019-04-05T20:11:21.363Z,22.77
2019-04-05T20:13:25.091Z,23.33
2019-04-05T20:15:28.830Z,27.43
2019-04-05T20:17:32.542Z,18.37
2019-04-05T20:19:36.265Z,20.63
2019-04-05T20:21:39.987Z,26.60
2019-04-05T20:23:47.630Z,29.27
2019-04-05T20:25:49.204Z,23.90
2019-04-05T20:27:53.017Z,25.30
2019-04-05T20:29:56.784Z,24.53
2019-04-05T20:32:00.561Z,24.17
2019-04-05T20:34:04.599Z,23.90
2019-04-05T20:36:08.346Z,22.23
2019-04-05T20:38:15.136Z,23.30
2019-04-05T20:40:18.891Z,23.97
2019-04-05T20:42:22.627Z,26.40
2019-04-05T20:44:26.405Z,21.30
2019-04-05T20:46:32.153Z,25.17
2019-04-05T20:48:35.878Z,25.20
2019-04-05T20:50:39.650Z,21.50
2019-04-05T20:52:43.389Z,23.67
2019-04-05T20:54:47.142Z,23.33
2019-04-05T20:56:50.857Z,24.87
2019-04-05T20:58:54.568Z,24.33
2019-04-05T21:00:59.377Z,22.00
2019-04-05T21:03:03.190Z,25.10
2019-04-05T21:05:07.177Z,22.17
2019-04-05T21:07:10.890Z,28.00
2019-04-05T21:09:14.603Z,24.67
2019-04-05T21:11:18.493Z,22.13
2019-04-05T21:13:22.242Z,24.63
2019-04-05T21:15:25.966Z,25.40
2019-04-05T21:17:29.715Z,18.93
2019-04-05T21:19:33.507Z,22.50
2019-04-05T21:21:37.227Z,22.57
2019-04-05T21:23:40.936Z,21.53
2019-04-05T21:25:45.819Z,23.10
2019-04-05T21:27:49.527Z,26.00
2019-04-05T21:29:53.247Z,24.80
2019-04-05T21:31:56.994Z,24.37
2019-04-05T21:34:00.715Z,26.77
2019-04-05T21:36:04.738Z,20.13
2019-04-05T21:38:08.452Z,20.10
2019-04-05T21:40:12.729Z,26.30
2019-04-05T21:42:16.446Z,25.83
2019-04-05T21:44:20.160Z,23.20
2019-04-05T21:46:23.892Z,25.10
2019-04-05T21:48:27.656Z,25.97
2019-04-05T21:50:31.334Z,23.27
2019-04-05T21:52:35.045Z,23.67
2019-04-05T21:54:47.230Z,23.53
2019-04-05T21:56:45.532Z,25.23
2019-04-05T21:58:49.377Z,21.20
2019-04-05T22:00:57.270Z,24.50
2019-04-05T22:03:01.128Z,18.27
2019-04-05T22:05:05.819Z,21.87
2019-04-05T22:07:09.534Z,26.47
2019-04-05T22:09:13.486Z,23.57
2019-04-05T22:11:17.684Z,24.87
2019-04-05T22:13:21.393Z,31.80
2019-04-05T22:15:25.127Z,25.47
2019-04-05T22:17:28.832Z,23.07
2019-04-05T22:19:32.568Z,22.13
2019-04-05T22:21:36.278Z,25.67
2019-04-05T22:23:39.993Z,21.87
2019-04-05T22:25:43.739Z,23.53
2019-04-05T22:27:47.451Z,20.30
2019-04-05T22:29:51.181Z,24.57
2019-04-05T22:31:54.924Z,22.63
2019-04-05T22:33:58.628Z,26.47
2019-04-05T22:36:02.442Z,23.63
2019-04-05T22:38:06.229Z,21.73
2019-04-05T22:40:10.025Z,22.77
2019-04-05T22:42:13.744Z,30.90
2019-04-05T22:44:17.525Z,29.97
2019-04-05T22:46:21.281Z,30.63
2019-04-05T22:48:24.988Z,23.33
2019-04-05T22:50:28.750Z,23.93
2019-04-05T22:52:32.454Z,21.07
2019-04-05T22:54:36.234Z,28.93
2019-04-05T22:56:40.023Z,25.57
2019-04-05T22:58:43.835Z,20.30
2019-04-05T23:00:47.599Z,20.10
2019-04-05T23:02:51.341Z,29.97
2019-04-05T23:04:55.223Z,22.50
2019-04-05T23:06:58.945Z,26.40
2019-04-05T23:09:02.832Z,23.00
2019-04-05T23:11:06.570Z,22.93
2019-04-05T23:13:10.280Z,22.27
2019-04-05T23:15:14.251Z,23.73
2019-04-05T23:17:17.982Z,19.90
2019-04-05T23:19:21.693Z,20.63
2019-04-05T23:21:25.418Z,20.30
2019-04-05T23:23:29.191Z,20.40
2019-04-05T23:25:32.898Z,19.50
2019-04-05T23:27:36.667Z,21.93
2019-04-05T23:29:40.449Z,24.20
2019-04-05T23:31:44.170Z,23.23
2019-04-05T23:33:47.930Z,24.57
2019-04-05T23:35:51.731Z,25.77
2019-04-05T23:37:55.488Z,24.73
2019-04-05T23:39:59.202Z,23.33
2019-04-05T23:42:02.975Z,20.37
2019-04-05T23:44:06.651Z,23.90
2019-04-05T23:46:11.365Z,22.27
2019-04-05T23:48:15.066Z,22.23
2019-04-05T23:50:18.782Z,20.53
2019-04-05T23:52:22.550Z,22.30
2019-04-05T23:54:26.215Z,23.00
2019-04-05T23:56:29.940Z,23.60
2019-04-05T23:58:33.646Z,24.57
